Terminal Aerodrome Forecast
Issued by NWS St Louis, MO

Home | Current Version | Previous Version | Text Only | Print | Product List | Glossary On
Versions: 1 2 3 4 5 6 7 8 9 10 11 12 13 14 15 16 17 18 19 20 21 22 23 24 25
353
FTUS43 KLSX 120535
TAFSTL
TAF
KSTL 120535Z 1206/1312 10004KT P6SM OVC050
     FM120700 VRB03KT 3SM -SN OVC025
     FM121000 VRB03KT P6SM OVC040
     FM121200 00000KT P6SM OVC025
     FM121600 31007KT P6SM BKN015
     FM121800 31014G22KT P6SM BKN035
     FM122300 32014KT P6SM SCT150=

USA.gov is the U.S. government's official web portal to all federal, state and local government web resources and services.